sensor_id;sensor_type;location;lat;lon;timestamp;temperature;humidity
59847;DHT22;45728;48.788;2.302;2023-04-01T00:00:31;11.00;99.90
59847;DHT22;45728;48.788;2.302;2023-04-01T00:02:57;10.90;99.90
59847;DHT22;45728;48.788;2.302;2023-04-01T00:05:23;10.90;99.90
59847;DHT22;45728;48.788;2.302;2023-04-01T00:07:50;10.90;99.90
59847;DHT22;45728;48.788;2.302;2023-04-01T00:10:17;10.90;99.90
59847;DHT22;45728;48.788;2.302;2023-04-01T00:12:43;10.80;99.90
59847;DHT22;45728;48.788;2.302;2023-04-01T00:15:11;10.90;99.90
59847;DHT22;45728;48.788;2.302;2023-04-01T00:17:37;10.90;99.90
59847;DHT22;45728;48.788;2.302;2023-04-01T00:20:05;10.90;99.90
59847;DHT22;45728;48.788;2.302;2023-04-01T00:22:33;10.90;99.90
59847;DHT22;45728;48.788;2.302;2023-04-01T00:24:59;10.90;99.90
59847;DHT22;45728;48.788;2.302;2023-04-01T00:27:26;10.80;99.90
59847;DHT22;45728;48.788;2.302;2023-04-01T00:29:52;10.80;99.90
59847;DHT22;45728;48.788;2.302;2023-04-01T00:32:18;10.80;99.90
59847;DHT22;45728;48.788;2.302;2023-04-01T00:34:44;10.80;99.90
59847;DHT22;45728;48.788;2.302;2023-04-01T00:37:10;10.70;99.90
59847;DHT22;45728;48.788;2.302;2023-04-01T00:39:37;10.70;99.90
59847;DHT22;45728;48.788;2.302;2023-04-01T00:42:03;10.70;99.90
59847;DHT22;45728;48.788;2.302;2023-04-01T00:44:31;10.70;99.90
59847;DHT22;45728;48.788;2.302;2023-04-01T00:46:58;10.80;99.90
59847;DHT22;45728;48.788;2.302;2023-04-01T00:49:35;10.80;99.90
59847;DHT22;45728;48.788;2.302;2023-04-01T00:52:03;10.80;99.90
59847;DHT22;45728;48.788;2.302;2023-04-01T00:54:31;10.90;99.90
59847;DHT22;45728;48.788;2.302;2023-04-01T00:57:02;10.80;99.90
59847;DHT22;45728;48.788;2.302;2023-04-01T00:59:33;10.80;99.90
59847;DHT22;45728;48.788;2.302;2023-04-01T01:02:02;10.80;99.90
59847;DHT22;45728;48.788;2.302;2023-04-01T01:04:31;10.80;99.90
59847;DHT22;45728;48.788;2.302;2023-04-01T01:07:20;10.70;99.90
59847;DHT22;45728;48.788;2.302;2023-04-01T01:12:47;10.80;99.90
59847;DHT22;45728;48.788;2.302;2023-04-01T01:18:01;10.70;99.90
59847;DHT22;45728;48.788;2.302;2023-04-01T01:32:53;10.70;99.90
59847;DHT22;45728;48.788;2.302;2023-04-01T01:35:26;10.70;99.90
59847;DHT22;45728;48.788;2.302;2023-04-01T01:38:00;10.70;99.90
59847;DHT22;45728;48.788;2.302;2023-04-01T01:40:29;10.70;99.90
59847;DHT22;45728;48.788;2.302;2023-04-01T01:43:00;10.70;99.90
59847;DHT22;45728;48.788;2.302;2023-04-01T01:45:28;10.60;99.90
59847;DHT22;45728;48.788;2.302;2023-04-01T01:47:56;10.60;99.90
59847;DHT22;45728;48.788;2.302;2023-04-01T01:50:25;10.60;99.90
59847;DHT22;45728;48.788;2.302;2023-04-01T01:53:01;10.60;99.90
59847;DHT22;45728;48.788;2.302;2023-04-01T01:55:32;10.60;99.90
59847;DHT22;45728;48.788;2.302;2023-04-01T01:58:23;10.60;99.90
59847;DHT22;45728;48.788;2.302;2023-04-01T02:00:51;10.50;99.90
59847;DHT22;45728;48.788;2.302;2023-04-01T02:03:21;10.50;99.90
59847;DHT22;45728;48.788;2.302;2023-04-01T02:05:49;10.50;99.90
59847;DHT22;45728;48.788;2.302;2023-04-01T02:08:20;10.50;99.90
59847;DHT22;45728;48.788;2.302;2023-04-01T02:10:55;10.50;99.90
59847;DHT22;45728;48.788;2.302;2023-04-01T02:13:29;10.50;99.90
59847;DHT22;45728;48.788;2.302;2023-04-01T02:16:02;10.50;99.90
59847;DHT22;45728;48.788;2.302;2023-04-01T02:18:31;10.50;99.90
59847;DHT22;45728;48.788;2.302;2023-04-01T02:20:59;10.60;99.90
59847;DHT22;45728;48.788;2.302;2023-04-01T02:23:26;10.50;99.90
59847;DHT22;45728;48.788;2.302;2023-04-01T02:25:54;10.60;99.90
59847;DHT22;45728;48.788;2.302;2023-04-01T02:28:20;10.60;99.90
59847;DHT22;45728;48.788;2.302;2023-04-01T02:30:49;10.70;99.90
59847;DHT22;45728;48.788;2.302;2023-04-01T02:33:17;10.70;99.90
59847;DHT22;45728;48.788;2.302;2023-04-01T02:35:44;10.70;99.90
59847;DHT22;45728;48.788;2.302;2023-04-01T02:38:10;10.70;99.90
59847;DHT22;45728;48.788;2.302;2023-04-01T02:40:45;10.80;99.90
59847;DHT22;45728;48.788;2.302;2023-04-01T02:43:12;10.80;99.90
59847;DHT22;45728;48.788;2.302;2023-04-01T02:45:38;10.80;99.90
59847;DHT22;45728;48.788;2.302;2023-04-01T02:48:05;10.80;99.90
59847;DHT22;45728;48.788;2.302;2023-04-01T02:50:31;10.80;99.90
59847;DHT22;45728;48.788;2.302;2023-04-01T02:52:57;10.80;99.90
59847;DHT22;45728;48.788;2.302;2023-04-01T02:55:23;10.80;99.90
59847;DHT22;45728;48.788;2.302;2023-04-01T02:57:49;10.80;99.90
59847;DHT22;45728;48.788;2.302;2023-04-01T03:00:16;10.80;99.90
59847;DHT22;45728;48.788;2.302;2023-04-01T03:02:42;10.90;99.90
59847;DHT22;45728;48.788;2.302;2023-04-01T03:05:09;10.90;99.90
59847;DHT22;45728;48.788;2.302;2023-04-01T03:07:36;10.90;99.90
59847;DHT22;45728;48.788;2.302;2023-04-01T03:10:02;10.90;99.90
59847;DHT22;45728;48.788;2.302;2023-04-01T03:12:28;10.90;99.90
59847;DHT22;45728;48.788;2.302;2023-04-01T03:14:54;10.90;99.90
59847;DHT22;45728;48.788;2.302;2023-04-01T03:17:20;10.90;99.90
59847;DHT22;45728;48.788;2.302;2023-04-01T03:19:46;10.90;99.90
59847;DHT22;45728;48.788;2.302;2023-04-01T03:22:12;10.90;99.90
59847;DHT22;45728;48.788;2.302;2023-04-01T03:24:38;10.90;99.90
59847;DHT22;45728;48.788;2.302;2023-04-01T03:27:04;11.00;99.90
59847;DHT22;45728;48.788;2.302;2023-04-01T03:29:30;11.00;99.90
59847;DHT22;45728;48.788;2.302;2023-04-01T03:31:56;10.90;99.90
59847;DHT22;45728;48.788;2.302;2023-04-01T03:34:25;10.90;99.90
59847;DHT22;45728;48.788;2.302;2023-04-01T03:36:52;10.90;99.90
59847;DHT22;45728;48.788;2.302;2023-04-01T03:39:18;10.90;99.90
59847;DHT22;45728;48.788;2.302;2023-04-01T03:41:45;10.80;99.90
59847;DHT22;45728;48.788;2.302;2023-04-01T03:44:11;10.80;99.90
59847;DHT22;45728;48.788;2.302;2023-04-01T03:46:38;10.90;99.90
59847;DHT22;45728;48.788;2.302;2023-04-01T03:49:07;10.90;99.90
59847;DHT22;45728;48.788;2.302;2023-04-01T03:51:38;10.90;99.90
59847;DHT22;45728;48.788;2.302;2023-04-01T03:54:05;10.90;99.90
59847;DHT22;45728;48.788;2.302;2023-04-01T03:56:32;10.90;99.90
59847;DHT22;45728;48.788;2.302;2023-04-01T03:58:58;10.90;99.90
59847;DHT22;45728;48.788;2.302;2023-04-01T04:01:24;10.90;99.90
59847;DHT22;45728;48.788;2.302;2023-04-01T04:03:50;10.90;99.90
59847;DHT22;45728;48.788;2.302;2023-04-01T04:06:18;10.90;99.90
59847;DHT22;45728;48.788;2.302;2023-04-01T04:08:45;10.90;99.90
59847;DHT22;45728;48.788;2.302;2023-04-01T04:11:11;10.90;99.90
59847;DHT22;45728;48.788;2.302;2023-04-01T04:13:37;10.90;99.90
59847;DHT22;45728;48.788;2.302;2023-04-01T04:16:04;10.90;99.90
59847;DHT22;45728;48.788;2.302;2023-04-01T04:18:30;10.80;99.90
59847;DHT22;45728;48.788;2.302;2023-04-01T04:20:56;10.90;99.90
59847;DHT22;45728;48.788;2.302;2023-04-01T04:23:22;10.90;99.90
59847;DHT22;45728;48.788;2.302;2023-04-01T04:25:57;10.90;99.90
59847;DHT22;45728;48.788;2.302;2023-04-01T04:28:24;10.90;99.90
59847;DHT22;45728;48.788;2.302;2023-04-01T04:30:51;10.90;99.90
59847;DHT22;45728;48.788;2.302;2023-04-01T04:33:17;10.90;99.90
59847;DHT22;45728;48.788;2.302;2023-04-01T04:35:43;10.90;99.90
59847;DHT22;45728;48.788;2.302;2023-04-01T04:38:10;11.00;99.90
59847;DHT22;45728;48.788;2.302;2023-04-01T04:40:40;10.90;99.90
59847;DHT22;45728;48.788;2.302;2023-04-01T04:43:07;10.90;99.90
59847;DHT22;45728;48.788;2.302;2023-04-01T04:45:35;10.90;99.90
59847;DHT22;45728;48.788;2.302;2023-04-01T04:48:01;10.90;99.90
59847;DHT22;45728;48.788;2.302;2023-04-01T04:50:27;10.90;99.90
59847;DHT22;45728;48.788;2.302;2023-04-01T04:52:53;10.90;99.90
59847;DHT22;45728;48.788;2.302;2023-04-01T04:55:20;10.90;99.90
59847;DHT22;45728;48.788;2.302;2023-04-01T04:57:46;10.90;99.90
59847;DHT22;45728;48.788;2.302;2023-04-01T05:00:13;10.90;99.90
59847;DHT22;45728;48.788;2.302;2023-04-01T05:02:39;10.90;99.90
59847;DHT22;45728;48.788;2.302;2023-04-01T05:05:05;10.90;99.90
59847;DHT22;45728;48.788;2.302;2023-04-01T05:07:33;10.80;99.90
59847;DHT22;45728;48.788;2.302;2023-04-01T05:09:59;10.90;99.90
59847;DHT22;45728;48.788;2.302;2023-04-01T05:12:25;10.90;99.90
59847;DHT22;45728;48.788;2.302;2023-04-01T05:14:51;10.90;99.90
59847;DHT22;45728;48.788;2.302;2023-04-01T05:17:17;10.80;99.90
59847;DHT22;45728;48.788;2.302;2023-04-01T05:19:43;10.80;99.90
59847;DHT22;45728;48.788;2.302;2023-04-01T05:22:09;10.80;99.90
59847;DHT22;45728;48.788;2.302;2023-04-01T05:24:36;10.80;99.90
59847;DHT22;45728;48.788;2.302;2023-04-01T05:27:02;10.80;99.90
59847;DHT22;45728;48.788;2.302;2023-04-01T05:29:28;10.80;99.90
59847;DHT22;45728;48.788;2.302;2023-04-01T05:31:54;10.70;99.90
59847;DHT22;45728;48.788;2.302;2023-04-01T05:34:20;10.80;99.90
59847;DHT22;45728;48.788;2.302;2023-04-01T05:36:46;10.70;99.90
59847;DHT22;45728;48.788;2.302;2023-04-01T05:39:12;10.70;99.90
59847;DHT22;45728;48.788;2.302;2023-04-01T05:41:38;10.70;99.90
59847;DHT22;45728;48.788;2.302;2023-04-01T05:44:06;10.70;99.90
59847;DHT22;45728;48.788;2.302;2023-04-01T05:46:32;10.60;99.90
59847;DHT22;45728;48.788;2.302;2023-04-01T05:48:58;10.70;99.90
59847;DHT22;45728;48.788;2.302;2023-04-01T05:51:24;10.70;99.90
59847;DHT22;45728;48.788;2.302;2023-04-01T05:53:50;10.70;99.90
59847;DHT22;45728;48.788;2.302;2023-04-01T05:56:16;10.70;99.90
59847;DHT22;45728;48.788;2.302;2023-04-01T05:58:42;10.70;99.90
59847;DHT22;45728;48.788;2.302;2023-04-01T06:01:10;10.60;99.90
59847;DHT22;45728;48.788;2.302;2023-04-01T06:03:37;10.60;99.90
59847;DHT22;45728;48.788;2.302;2023-04-01T06:06:03;10.60;99.90
59847;DHT22;45728;48.788;2.302;2023-04-01T06:08:31;10.60;99.90
59847;DHT22;45728;48.788;2.302;2023-04-01T06:14:00;10.70;99.90
59847;DHT22;45728;48.788;2.302;2023-04-01T06:25:10;10.80;99.90
59847;DHT22;45728;48.788;2.302;2023-04-01T06:30:43;10.70;99.90
59847;DHT22;45728;48.788;2.302;2023-04-01T06:33:46;10.80;99.90
59847;DHT22;45728;48.788;2.302;2023-04-01T06:37:17;10.80;99.90
59847;DHT22;45728;48.788;2.302;2023-04-01T06:42:26;10.80;99.90
59847;DHT22;45728;48.788;2.302;2023-04-01T06:50:23;10.80;99.90
59847;DHT22;45728;48.788;2.302;2023-04-01T06:55:47;10.80;99.90
59847;DHT22;45728;48.788;2.302;2023-04-01T06:58:31;10.80;99.90
59847;DHT22;45728;48.788;2.302;2023-04-01T07:01:10;10.80;99.90
59847;DHT22;45728;48.788;2.302;2023-04-01T07:04:05;10.80;99.90
59847;DHT22;45728;48.788;2.302;2023-04-01T07:06:54;10.80;99.90
59847;DHT22;45728;48.788;2.302;2023-04-01T07:09:32;10.90;99.90
59847;DHT22;45728;48.788;2.302;2023-04-01T07:12:10;11.00;99.90
59847;DHT22;45728;48.788;2.302;2023-04-01T07:14:39;11.00;99.90
59847;DHT22;45728;48.788;2.302;2023-04-01T07:17:15;11.00;99.90
59847;DHT22;45728;48.788;2.302;2023-04-01T07:22:42;11.10;99.90
59847;DHT22;45728;48.788;2.302;2023-04-01T07:25:18;11.00;99.90
59847;DHT22;45728;48.788;2.302;2023-04-01T07:27:46;11.10;99.90
59847;DHT22;45728;48.788;2.302;2023-04-01T07:30:21;11.10;99.90
59847;DHT22;45728;48.788;2.302;2023-04-01T07:36:10;11.10;99.90
59847;DHT22;45728;48.788;2.302;2023-04-01T07:38:21;11.30;99.90
59847;DHT22;45728;48.788;2.302;2023-04-01T07:41:16;11.40;99.90
59847;DHT22;45728;48.788;2.302;2023-04-01T07:46:39;11.40;99.90
59847;DHT22;45728;48.788;2.302;2023-04-01T07:51:55;11.40;99.90
59847;DHT22;45728;48.788;2.302;2023-04-01T07:57:12;11.40;99.90
59847;DHT22;45728;48.788;2.302;2023-04-01T08:05:19;11.50;99.90
59847;DHT22;45728;48.788;2.302;2023-04-01T08:10:58;11.70;99.90
59847;DHT22;45728;48.788;2.302;2023-04-01T08:16:26;12.00;99.90
59847;DHT22;45728;48.788;2.302;2023-04-01T08:21:39;12.20;99.90
59847;DHT22;45728;48.788;2.302;2023-04-01T08:24:29;12.20;99.90
59847;DHT22;45728;48.788;2.302;2023-04-01T08:27:00;12.10;99.90
59847;DHT22;45728;48.788;2.302;2023-04-01T08:29:40;12.30;99.90
59847;DHT22;45728;48.788;2.302;2023-04-01T08:32:13;12.30;99.90
59847;DHT22;45728;48.788;2.302;2023-04-01T08:34:45;12.60;99.90
59847;DHT22;45728;48.788;2.302;2023-04-01T08:37:21;12.30;99.90
59847;DHT22;45728;48.788;2.302;2023-04-01T08:39:58;12.30;99.90
59847;DHT22;45728;48.788;2.302;2023-04-01T08:48:27;12.40;99.90
59847;DHT22;45728;48.788;2.302;2023-04-01T09:08:25;12.60;99.90
59847;DHT22;45728;48.788;2.302;2023-04-01T09:14:15;12.60;99.90
59847;DHT22;45728;48.788;2.302;2023-04-01T09:17:04;12.60;99.90
59847;DHT22;45728;48.788;2.302;2023-04-01T09:25:24;13.00;99.90
59847;DHT22;45728;48.788;2.302;2023-04-01T09:28:11;13.00;99.90
59847;DHT22;45728;48.788;2.302;2023-04-01T09:33:46;12.90;99.90
59847;DHT22;45728;48.788;2.302;2023-04-01T09:36:18;12.80;99.90
59847;DHT22;45728;48.788;2.302;2023-04-01T09:46:37;12.80;99.90
59847;DHT22;45728;48.788;2.302;2023-04-01T10:11:42;13.70;99.90
59847;DHT22;45728;48.788;2.302;2023-04-01T10:26:09;13.10;99.90
59847;DHT22;45728;48.788;2.302;2023-04-01T10:41:07;13.60;99.90
59847;DHT22;45728;48.788;2.302;2023-04-01T10:49:20;13.60;99.90
59847;DHT22;45728;48.788;2.302;2023-04-01T10:54:49;13.50;99.90
59847;DHT22;45728;48.788;2.302;2023-04-01T11:13:44;13.70;99.90
59847;DHT22;45728;48.788;2.302;2023-04-01T11:24:56;14.00;99.90
59847;DHT22;45728;48.788;2.302;2023-04-01T11:33:51;14.40;99.90
59847;DHT22;45728;48.788;2.302;2023-04-01T11:44:42;15.30;99.90
59847;DHT22;45728;48.788;2.302;2023-04-01T11:49:56;15.90;99.90
59847;DHT22;45728;48.788;2.302;2023-04-01T11:58:42;15.20;99.90
59847;DHT22;45728;48.788;2.302;2023-04-01T12:17:51;15.30;99.90
59847;DHT22;45728;48.788;2.302;2023-04-01T12:20:33;14.80;99.90
59847;DHT22;45728;48.788;2.302;2023-04-01T12:37:34;15.30;99.90
59847;DHT22;45728;48.788;2.302;2023-04-01T12:40:37;14.80;99.90
59847;DHT22;45728;48.788;2.302;2023-04-01T12:46:13;14.90;99.90
59847;DHT22;45728;48.788;2.302;2023-04-01T12:54:23;15.90;99.90
59847;DHT22;45728;48.788;2.302;2023-04-01T13:16:36;16.00;99.90
59847;DHT22;45728;48.788;2.302;2023-04-01T13:19:25;15.80;99.90
59847;DHT22;45728;48.788;2.302;2023-04-01T13:24:51;16.10;99.90
59847;DHT22;45728;48.788;2.302;2023-04-01T13:27:20;16.30;99.90
59847;DHT22;45728;48.788;2.302;2023-04-01T13:29:55;16.20;99.90
59847;DHT22;45728;48.788;2.302;2023-04-01T13:32:29;16.20;99.90
59847;DHT22;45728;48.788;2.302;2023-04-01T13:35:21;16.30;99.90
59847;DHT22;45728;48.788;2.302;2023-04-01T13:37:54;16.50;99.90
59847;DHT22;45728;48.788;2.302;2023-04-01T13:43:28;16.20;99.90
59847;DHT22;45728;48.788;2.302;2023-04-01T13:59:55;15.50;99.90
59847;DHT22;45728;48.788;2.302;2023-04-01T14:17:07;15.50;99.90
59847;DHT22;45728;48.788;2.302;2023-04-01T14:19:56;15.30;99.90
59847;DHT22;45728;48.788;2.302;2023-04-01T14:31:53;15.20;99.90
59847;DHT22;45728;48.788;2.302;2023-04-01T14:34:43;15.50;99.90
59847;DHT22;45728;48.788;2.302;2023-04-01T14:40:22;15.30;99.90
59847;DHT22;45728;48.788;2.302;2023-04-01T14:46:06;15.40;99.90
59847;DHT22;45728;48.788;2.302;2023-04-01T14:48:36;15.50;99.90
59847;DHT22;45728;48.788;2.302;2023-04-01T14:51:16;15.50;99.90
59847;DHT22;45728;48.788;2.302;2023-04-01T14:53:59;15.60;99.90
59847;DHT22;45728;48.788;2.302;2023-04-01T14:56:40;15.70;99.90
59847;DHT22;45728;48.788;2.302;2023-04-01T15:01:55;15.50;99.90
59847;DHT22;45728;48.788;2.302;2023-04-01T15:04:46;15.40;99.90
59847;DHT22;45728;48.788;2.302;2023-04-01T15:07:42;15.50;99.90
59847;DHT22;45728;48.788;2.302;2023-04-01T15:13:04;15.00;99.90
59847;DHT22;45728;48.788;2.302;2023-04-01T15:32:44;14.60;99.90
59847;DHT22;45728;48.788;2.302;2023-04-01T15:35:30;14.40;99.90
59847;DHT22;45728;48.788;2.302;2023-04-01T15:41:16;14.20;99.90
59847;DHT22;45728;48.788;2.302;2023-04-01T15:43:47;13.20;99.90
59847;DHT22;45728;48.788;2.302;2023-04-01T15:48:56;12.60;99.90
59847;DHT22;45728;48.788;2.302;2023-04-01T15:51:56;12.80;99.90
59847;DHT22;45728;48.788;2.302;2023-04-01T15:54:38;12.90;99.90
59847;DHT22;45728;48.788;2.302;2023-04-01T16:00:23;13.30;99.90
59847;DHT22;45728;48.788;2.302;2023-04-01T16:10:59;13.40;99.90
59847;DHT22;45728;48.788;2.302;2023-04-01T16:13:44;13.10;99.90
59847;DHT22;45728;48.788;2.302;2023-04-01T16:29:55;12.10;99.90
59847;DHT22;45728;48.788;2.302;2023-04-01T16:41:17;11.90;99.90
59847;DHT22;45728;48.788;2.302;2023-04-01T16:43:48;11.90;99.90
59847;DHT22;45728;48.788;2.302;2023-04-01T16:52:16;11.90;99.90
59847;DHT22;45728;48.788;2.302;2023-04-01T16:54:48;11.90;99.90
59847;DHT22;45728;48.788;2.302;2023-04-01T17:00:16;11.90;99.90
59847;DHT22;45728;48.788;2.302;2023-04-01T17:03:12;11.90;99.90
59847;DHT22;45728;48.788;2.302;2023-04-01T17:08:51;12.00;99.90
59847;DHT22;45728;48.788;2.302;2023-04-01T17:11:29;11.90;99.90
59847;DHT22;45728;48.788;2.302;2023-04-01T17:25:31;11.70;99.90
59847;DHT22;45728;48.788;2.302;2023-04-01T17:29:02;11.70;99.90
59847;DHT22;45728;48.788;2.302;2023-04-01T17:31:46;11.70;99.90
59847;DHT22;45728;48.788;2.302;2023-04-01T17:34:24;11.70;99.90
59847;DHT22;45728;48.788;2.302;2023-04-01T17:37:13;11.70;99.90
59847;DHT22;45728;48.788;2.302;2023-04-01T17:42:22;11.60;99.90
59847;DHT22;45728;48.788;2.302;2023-04-01T17:45:17;11.60;99.90
59847;DHT22;45728;48.788;2.302;2023-04-01T17:53:56;11.40;99.90
59847;DHT22;45728;48.788;2.302;2023-04-01T17:56:54;11.40;99.90
59847;DHT22;45728;48.788;2.302;2023-04-01T17:59:38;11.40;99.90
59847;DHT22;45728;48.788;2.302;2023-04-01T18:02:21;11.40;99.90
59847;DHT22;45728;48.788;2.302;2023-04-01T18:04:59;11.40;99.90
59847;DHT22;45728;48.788;2.302;2023-04-01T18:07:57;11.20;99.90
59847;DHT22;45728;48.788;2.302;2023-04-01T18:10:57;11.20;99.90
59847;DHT22;45728;48.788;2.302;2023-04-01T18:21:43;11.10;99.90
59847;DHT22;45728;48.788;2.302;2023-04-01T18:24:28;11.10;99.90
59847;DHT22;45728;48.788;2.302;2023-04-01T18:27:19;11.20;99.90
59847;DHT22;45728;48.788;2.302;2023-04-01T18:29:54;11.20;99.90
59847;DHT22;45728;48.788;2.302;2023-04-01T18:32:34;11.20;99.90
59847;DHT22;45728;48.788;2.302;2023-04-01T18:38:00;11.10;99.90
59847;DHT22;45728;48.788;2.302;2023-04-01T18:40:46;11.20;99.90
59847;DHT22;45728;48.788;2.302;2023-04-01T18:45:54;11.30;99.90
59847;DHT22;45728;48.788;2.302;2023-04-01T18:51:43;11.10;99.90
59847;DHT22;45728;48.788;2.302;2023-04-01T18:54:19;11.10;99.90
59847;DHT22;45728;48.788;2.302;2023-04-01T18:56:48;11.20;99.90
59847;DHT22;45728;48.788;2.302;2023-04-01T18:59:24;11.10;99.90
59847;DHT22;45728;48.788;2.302;2023-04-01T19:04:30;11.20;99.90
59847;DHT22;45728;48.788;2.302;2023-04-01T19:07:00;11.20;99.90
59847;DHT22;45728;48.788;2.302;2023-04-01T19:09:43;11.20;99.90
59847;DHT22;45728;48.788;2.302;2023-04-01T19:12:32;11.20;99.90
59847;DHT22;45728;48.788;2.302;2023-04-01T19:26:46;11.30;99.90
59847;DHT22;45728;48.788;2.302;2023-04-01T19:32:33;11.20;99.90
59847;DHT22;45728;48.788;2.302;2023-04-01T19:38:14;11.20;99.90
59847;DHT22;45728;48.788;2.302;2023-04-01T19:40:50;11.20;99.90
59847;DHT22;45728;48.788;2.302;2023-04-01T19:49:24;11.10;99.90
59847;DHT22;45728;48.788;2.302;2023-04-01T19:54:46;11.20;99.90
59847;DHT22;45728;48.788;2.302;2023-04-01T20:00:24;11.10;99.90
59847;DHT22;45728;48.788;2.302;2023-04-01T20:06:06;11.10;99.90
59847;DHT22;45728;48.788;2.302;2023-04-01T20:16:16;11.10;99.90
59847;DHT22;45728;48.788;2.302;2023-04-01T20:18:57;11.10;99.90
59847;DHT22;45728;48.788;2.302;2023-04-01T20:24:02;11.10;99.90
59847;DHT22;45728;48.788;2.302;2023-04-01T20:26:40;11.10;99.90
59847;DHT22;45728;48.788;2.302;2023-04-01T20:32:14;10.90;99.90
59847;DHT22;45728;48.788;2.302;2023-04-01T20:37:49;11.00;99.90
59847;DHT22;45728;48.788;2.302;2023-04-01T20:40:46;10.90;99.90
59847;DHT22;45728;48.788;2.302;2023-04-01T20:46:32;10.90;99.90
59847;DHT22;45728;48.788;2.302;2023-04-01T20:49:23;10.90;99.90
59847;DHT22;45728;48.788;2.302;2023-04-01T21:06:18;10.80;99.90
59847;DHT22;45728;48.788;2.302;2023-04-01T21:08:59;10.80;99.90
59847;DHT22;45728;48.788;2.302;2023-04-01T21:26:09;10.80;99.90
59847;DHT22;45728;48.788;2.302;2023-04-01T21:28:59;10.70;99.90
59847;DHT22;45728;48.788;2.302;2023-04-01T21:34:37;10.70;99.90
59847;DHT22;45728;48.788;2.302;2023-04-01T21:45:23;10.70;99.90
59847;DHT22;45728;48.788;2.302;2023-04-01T21:48:21;10.70;99.90
59847;DHT22;45728;48.788;2.302;2023-04-01T22:07:55;10.60;99.90
59847;DHT22;45728;48.788;2.302;2023-04-01T22:10:31;10.60;99.90
59847;DHT22;45728;48.788;2.302;2023-04-01T22:13:16;10.60;99.90
59847;DHT22;45728;48.788;2.302;2023-04-01T22:16:56;10.50;99.90
59847;DHT22;45728;48.788;2.302;2023-04-01T22:19:17;10.50;99.90
59847;DHT22;45728;48.788;2.302;2023-04-01T22:21:56;10.40;99.90
59847;DHT22;45728;48.788;2.302;2023-04-01T22:27:26;10.40;99.90
59847;DHT22;45728;48.788;2.302;2023-04-01T22:30:08;10.40;99.90
59847;DHT22;45728;48.788;2.302;2023-04-01T22:41:28;10.40;99.90
59847;DHT22;45728;48.788;2.302;2023-04-01T22:43:59;10.40;99.90
59847;DHT22;45728;48.788;2.302;2023-04-01T22:46:45;10.40;99.90
59847;DHT22;45728;48.788;2.302;2023-04-01T22:49:54;10.40;99.90
59847;DHT22;45728;48.788;2.302;2023-04-01T22:55:00;10.40;99.90
59847;DHT22;45728;48.788;2.302;2023-04-01T22:57:38;10.40;99.90
59847;DHT22;45728;48.788;2.302;2023-04-01T23:00:25;10.50;99.90
59847;DHT22;45728;48.788;2.302;2023-04-01T23:06:00;10.40;99.90
59847;DHT22;45728;48.788;2.302;2023-04-01T23:09:00;10.40;99.90
59847;DHT22;45728;48.788;2.302;2023-04-01T23:11:48;10.40;99.90
59847;DHT22;45728;48.788;2.302;2023-04-01T23:19:32;10.30;99.90
59847;DHT22;45728;48.788;2.302;2023-04-01T23:24:53;10.30;99.90
59847;DHT22;45728;48.788;2.302;2023-04-01T23:27:22;10.30;99.90
59847;DHT22;45728;48.788;2.302;2023-04-01T23:29:51;10.30;99.90
59847;DHT22;45728;48.788;2.302;2023-04-01T23:32:19;10.20;99.90
59847;DHT22;45728;48.788;2.302;2023-04-01T23:34:55;10.20;99.90
59847;DHT22;45728;48.788;2.302;2023-04-01T23:37:23;10.20;99.90
59847;DHT22;45728;48.788;2.302;2023-04-01T23:42:27;10.20;99.90
59847;DHT22;45728;48.788;2.302;2023-04-01T23:45:00;10.20;99.90
59847;DHT22;45728;48.788;2.302;2023-04-01T23:47:32;10.10;99.90
59847;DHT22;45728;48.788;2.302;2023-04-01T23:50:02;10.10;99.90
59847;DHT22;45728;48.788;2.302;2023-04-01T23:52:51;10.10;99.90
